Time,TemperatureF,DewpointF,PressureIn,WindDirection,WindDirectionDegrees,WindSpeedMPH,WindSpeedGustMPH,Humidity,HourlyPrecipIn,Conditions,Clouds,dailyrainin,SoftwareType,DateUTC
2013-07-01 00:01:00,66.4,66.0,29.81,SE,142,0.0,0.0,98,0.00,,,0.55,weatherlink.com 1.10,2013-07-01 04:01:00,
2013-07-01 00:16:00,66.6,66.0,29.81,SE,142,0.0,0.0,98,0.00,,,0.55,weatherlink.com 1.10,2013-07-01 04:16:00,
2013-07-01 00:31:00,66.6,66.0,29.81,SE,142,0.0,0.0,98,0.00,,,0.55,weatherlink.com 1.10,2013-07-01 04:31:00,
2013-07-01 00:46:00,66.8,66.0,29.81,SE,142,0.0,0.0,98,0.00,,,0.55,weatherlink.com 1.10,2013-07-01 04:46:00,
2013-07-01 01:01:00,66.8,66.0,29.81,SE,142,0.0,0.0,98,0.00,,,0.55,weatherlink.com 1.10,2013-07-01 05:01:00,
2013-07-01 01:16:00,66.9,67.0,29.81,SE,142,0.0,0.0,99,0.00,,,0.55,weatherlink.com 1.10,2013-07-01 05:16:00,
2013-07-01 01:31:00,66.9,67.0,29.81,SE,142,0.0,0.0,99,0.00,,,0.55,weatherlink.com 1.10,2013-07-01 05:31:00,
2013-07-01 01:46:00,67.1,67.0,29.81,SE,142,0.0,0.0,99,0.00,,,0.55,weatherlink.com 1.10,2013-07-01 05:46:00,
2013-07-01 02:01:00,67.1,67.0,29.81,SE,142,0.0,0.0,99,0.00,,,0.55,weatherlink.com 1.10,2013-07-01 06:01:00,
2013-07-01 02:16:00,67.1,67.0,29.81,SE,142,0.0,0.0,99,0.00,,,0.00,weatherlink.com 1.10,2013-07-01 06:16:00,
2013-07-01 02:31:00,67.1,67.0,29.81,SE,142,0.0,0.0,99,0.00,,,0.00,weatherlink.com 1.10,2013-07-01 06:31:00,
2013-07-01 02:46:00,67.1,67.0,29.80,SE,142,0.0,0.0,99,0.00,,,0.00,weatherlink.com 1.10,2013-07-01 06:46:00,
2013-07-01 03:01:00,67.1,67.0,29.80,SE,142,0.0,0.0,99,0.00,,,0.00,weatherlink.com 1.10,2013-07-01 07:01:00,
2013-07-01 03:16:00,67.4,67.0,29.80,SE,142,0.0,0.0,99,0.00,,,0.00,weatherlink.com 1.10,2013-07-01 07:16:00,
2013-07-01 03:31:00,67.6,67.0,29.80,SE,142,0.0,0.0,99,0.00,,,0.00,weatherlink.com 1.10,2013-07-01 07:31:00,
2013-07-01 03:46:00,67.8,68.0,29.80,SE,142,0.0,0.0,99,0.01,,,0.01,weatherlink.com 1.10,2013-07-01 07:46:00,
2013-07-01 04:01:00,67.9,68.0,29.80,SE,142,0.0,0.0,99,0.03,,,0.03,weatherlink.com 1.10,2013-07-01 08:01:00,
2013-07-01 04:16:00,67.9,68.0,29.80,SE,142,0.0,0.0,99,0.05,,,0.05,weatherlink.com 1.10,2013-07-01 08:16:00,
2013-07-01 04:31:00,67.9,68.0,29.79,SE,142,0.0,0.0,99,0.07,,,0.07,weatherlink.com 1.10,2013-07-01 08:31:00,
2013-07-01 04:46:00,67.9,68.0,29.80,SE,142,0.0,0.0,99,0.06,,,0.07,weatherlink.com 1.10,2013-07-01 08:46:00,
2013-07-01 05:01:00,68.1,68.0,29.81,SE,142,0.0,0.0,99,0.06,,,0.09,weatherlink.com 1.10,2013-07-01 09:01:00,
2013-07-01 05:16:00,68.1,68.0,29.81,SE,142,0.0,0.0,99,0.05,,,0.10,weatherlink.com 1.10,2013-07-01 09:16:00,
2013-07-01 05:31:00,68.1,68.0,29.82,SE,142,0.0,0.0,99,0.03,,,0.10,weatherlink.com 1.10,2013-07-01 09:31:00,
2013-07-01 05:46:00,68.1,68.0,29.82,SE,142,0.0,0.0,99,0.03,,,0.10,weatherlink.com 1.10,2013-07-01 09:46:00,
2013-07-01 06:01:00,67.9,68.0,29.82,SE,142,0.0,0.0,99,0.01,,,0.10,weatherlink.com 1.10,2013-07-01 10:01:00,
2013-07-01 06:16:00,67.9,68.0,29.83,ESE,118,0.0,0.0,99,0.00,,,0.10,weatherlink.com 1.10,2013-07-01 10:16:00,
2013-07-01 06:31:00,67.9,68.0,29.83,ESE,118,0.0,0.0,99,0.00,,,0.10,weatherlink.com 1.10,2013-07-01 10:31:00,
2013-07-01 06:46:00,67.9,68.0,29.84,ESE,118,0.0,0.0,99,0.00,,,0.10,weatherlink.com 1.10,2013-07-01 10:46:00,
2013-07-01 07:01:00,67.9,68.0,29.83,ESE,118,0.0,0.0,99,0.00,,,0.10,weatherlink.com 1.10,2013-07-01 11:01:00,
2013-07-01 07:16:00,67.9,68.0,29.84,ESE,118,0.0,0.0,100,0.00,,,0.10,weatherlink.com 1.10,2013-07-01 11:16:00,
2013-07-01 07:31:00,68.1,68.0,29.85,ESE,118,0.0,0.0,100,0.00,,,0.10,weatherlink.com 1.10,2013-07-01 11:31:00,
2013-07-01 07:46:00,68.3,68.0,29.85,ESE,118,0.0,0.0,100,0.00,,,0.10,weatherlink.com 1.10,2013-07-01 11:46:00,
2013-07-01 08:01:00,68.3,68.0,29.85,ESE,118,0.0,0.0,100,0.00,,,0.10,weatherlink.com 1.10,2013-07-01 12:01:00,
2013-07-01 08:16:00,68.6,69.0,29.85,ESE,118,1.0,1.0,100,0.00,,,0.10,weatherlink.com 1.10,2013-07-01 12:16:00,
2013-07-01 08:31:00,68.6,69.0,29.86,South,189,0.0,3.0,100,0.00,,,0.10,weatherlink.com 1.10,2013-07-01 12:31:00,
2013-07-01 08:46:00,69.1,69.0,29.86,SSE,153,0.0,1.0,100,0.00,,,0.10,weatherlink.com 1.10,2013-07-01 12:46:00,
2013-07-01 09:01:00,69.4,69.0,29.86,SSE,153,0.0,0.0,100,0.00,,,0.10,weatherlink.com 1.10,2013-07-01 13:01:00,
2013-07-01 09:16:00,69.8,70.0,29.87,SSE,153,0.0,1.0,100,0.00,,,0.10,weatherlink.com 1.10,2013-07-01 13:16:00,
2013-07-01 09:31:00,69.9,70.0,29.87,SSE,153,0.0,1.0,100,0.00,,,0.10,weatherlink.com 1.10,2013-07-01 13:31:00,
2013-07-01 09:46:00,70.3,70.0,29.87,SSE,153,0.0,2.0,99,0.00,,,0.10,weatherlink.com 1.10,2013-07-01 13:46:00,
2013-07-01 10:01:00,70.9,71.0,29.88,SSE,153,0.0,0.0,99,0.00,,,0.10,weatherlink.com 1.10,2013-07-01 14:01:00,
2013-07-01 10:16:00,71.1,71.0,29.87,SSE,153,0.0,0.0,98,0.00,,,0.10,weatherlink.com 1.10,2013-07-01 14:16:00,
2013-07-01 10:32:00,71.8,71.0,29.88,SSE,153,0.0,2.0,97,0.00,,,0.10,weatherlink.com 1.10,2013-07-01 14:32:00,
2013-07-01 10:47:00,72.7,70.0,29.88,SW,232,0.0,4.0,92,0.00,,,0.10,weatherlink.com 1.10,2013-07-01 14:47:00,
2013-07-01 11:02:00,74.0,70.0,29.87,SSW,200,0.0,2.0,86,0.00,,,0.10,weatherlink.com 1.10,2013-07-01 15:02:00,
2013-07-01 11:17:00,74.4,70.0,29.88,SSW,192,0.0,1.0,86,0.00,,,0.10,weatherlink.com 1.10,2013-07-01 15:17:00,
2013-07-01 11:32:00,74.4,70.0,29.88,SSW,192,0.0,1.0,86,0.00,,,0.10,weatherlink.com 1.10,2013-07-01 15:32:00,
2013-07-01 11:47:00,74.7,70.0,29.88,SSW,192,0.0,0.0,86,0.00,,,0.10,weatherlink.com 1.10,2013-07-01 15:47:00,
2013-07-01 12:02:00,75.3,70.0,29.88,SSW,192,0.0,1.0,83,0.00,,,0.10,weatherlink.com 1.10,2013-07-01 16:02:00,
2013-07-01 12:17:00,75.1,70.0,29.88,SSW,192,0.0,0.0,84,0.00,,,0.10,weatherlink.com 1.10,2013-07-01 16:17:00,
2013-07-01 12:32:00,75.1,70.0,29.88,SSW,192,0.0,0.0,84,0.00,,,0.10,weatherlink.com 1.10,2013-07-01 16:32:00,
2013-07-01 12:47:00,75.4,70.0,29.88,SSW,192,0.0,0.0,82,0.00,,,0.10,weatherlink.com 1.10,2013-07-01 16:47:00,
2013-07-01 13:02:00,76.3,70.0,29.88,SSW,192,0.0,0.0,80,0.00,,,0.10,weatherlink.com 1.10,2013-07-01 17:02:00,
2013-07-01 13:17:00,77.2,71.0,29.88,SSW,192,0.0,0.0,82,0.00,,,0.10,weatherlink.com 1.10,2013-07-01 17:17:00,
2013-07-01 13:32:00,76.7,72.0,29.88,SSW,192,0.0,0.0,84,0.00,,,0.10,weatherlink.com 1.10,2013-07-01 17:32:00,
2013-07-01 13:47:00,76.1,71.0,29.88,SSW,192,0.0,0.0,84,0.00,,,0.10,weatherlink.com 1.10,2013-07-01 17:47:00,
2013-07-01 14:02:00,76.3,71.0,29.88,SSW,192,0.0,1.0,84,0.00,,,0.10,weatherlink.com 1.10,2013-07-01 18:02:00,
2013-07-01 14:17:00,76.0,71.0,29.88,SSE,167,0.0,2.0,84,0.00,,,0.10,weatherlink.com 1.10,2013-07-01 18:17:00,
2013-07-01 14:32:00,77.2,71.0,29.87,NNE,24,0.0,1.0,80,0.00,,,0.10,weatherlink.com 1.10,2013-07-01 18:32:00,
2013-07-01 14:47:00,78.8,70.0,29.86,SE,127,0.0,2.0,75,0.00,,,0.10,weatherlink.com 1.10,2013-07-01 18:47:00,
2013-07-01 15:02:00,79.6,71.0,29.86,SE,132,0.0,2.0,75,0.00,,,0.10,weatherlink.com 1.10,2013-07-01 19:02:00,
2013-07-01 15:17:00,80.5,71.0,29.86,ESE,107,0.0,3.0,72,0.00,,,0.10,weatherlink.com 1.10,2013-07-01 19:17:00,
2013-07-01 15:32:00,81.4,72.0,29.86,SSE,161,0.0,2.0,72,0.00,,,0.10,weatherlink.com 1.10,2013-07-01 19:32:00,
2013-07-01 15:47:00,81.4,70.0,29.86,ENE,68,1.0,3.0,69,0.00,,,0.10,weatherlink.com 1.10,2013-07-01 19:47:00,
2013-07-01 16:02:00,81.2,71.0,29.86,SSW,194,0.0,3.0,70,0.00,,,0.10,weatherlink.com 1.10,2013-07-01 20:02:00,
2013-07-01 16:17:00,81.6,71.0,29.85,ESE,119,0.0,3.0,69,0.00,,,0.10,weatherlink.com 1.10,2013-07-01 20:17:00,
2013-07-01 16:32:00,80.5,72.0,29.86,NW,309,0.0,1.0,74,0.00,,,0.10,weatherlink.com 1.10,2013-07-01 20:32:00,
2013-07-01 16:47:00,79.9,70.0,29.86,East,98,0.0,2.0,72,0.00,,,0.10,weatherlink.com 1.10,2013-07-01 20:47:00,
2013-07-01 17:02:00,80.7,70.0,29.86,SE,142,0.0,2.0,70,0.00,,,0.10,weatherlink.com 1.10,2013-07-01 21:02:00,
2013-07-01 17:17:00,81.2,71.0,29.87,South,176,0.0,3.0,72,0.00,,,0.10,weatherlink.com 1.10,2013-07-01 21:17:00,
2013-07-01 17:32:00,80.7,71.0,29.86,ESE,118,0.0,3.0,72,0.00,,,0.10,weatherlink.com 1.10,2013-07-01 21:32:00,
2013-07-01 17:47:00,79.8,70.0,29.87,SE,135,0.0,2.0,73,0.00,,,0.10,weatherlink.com 1.10,2013-07-01 21:47:00,
2013-07-01 18:02:00,80.3,71.0,29.86,ESE,105,0.0,2.0,73,0.00,,,0.10,weatherlink.com 1.10,2013-07-01 22:02:00,
2013-07-01 18:17:00,80.5,71.0,29.87,South,177,0.0,3.0,72,0.00,,,0.10,weatherlink.com 1.10,2013-07-01 22:17:00,
2013-07-01 18:32:00,80.1,71.0,29.87,NNW,340,2.0,2.0,73,0.00,,,0.10,weatherlink.com 1.10,2013-07-01 22:32:00,
2013-07-01 18:47:00,79.8,70.0,29.87,SE,140,0.0,3.0,73,0.00,,,0.10,weatherlink.com 1.10,2013-07-01 22:47:00,
2013-07-01 19:02:00,79.4,71.0,29.87,SE,134,0.0,2.0,75,0.00,,,0.10,weatherlink.com 1.10,2013-07-01 23:02:00,
2013-07-01 19:17:00,78.6,71.0,29.88,SE,134,0.0,0.0,78,0.00,,,0.10,weatherlink.com 1.10,2013-07-01 23:17:00,
2013-07-01 19:32:00,77.7,71.0,29.88,SE,130,0.0,1.0,80,0.00,,,0.10,weatherlink.com 1.10,2013-07-01 23:32:00,
2013-07-01 19:47:00,77.6,71.0,29.88,SSE,153,0.0,1.0,79,0.00,,,0.10,weatherlink.com 1.10,2013-07-01 23:47:00,
2013-07-01 20:02:00,77.4,70.0,29.88,SE,146,0.0,1.0,79,0.00,,,0.10,weatherlink.com 1.10,2013-07-02 00:02:00,
2013-07-01 20:17:00,77.0,70.0,29.88,ESE,112,0.0,1.0,79,0.00,,,0.10,weatherlink.com 1.10,2013-07-02 00:17:00,
2013-07-01 20:32:00,76.7,70.0,29.89,ESE,107,0.0,1.0,80,0.00,,,0.10,weatherlink.com 1.10,2013-07-02 00:32:00,
2013-07-01 20:47:00,76.3,70.0,29.89,SE,126,0.0,1.0,80,0.00,,,0.10,weatherlink.com 1.10,2013-07-02 00:47:00,
2013-07-01 21:02:00,76.0,70.0,29.89,SE,134,0.0,1.0,82,0.00,,,0.10,weatherlink.com 1.10,2013-07-02 01:02:00,
2013-07-01 21:17:00,75.4,70.0,29.90,SSE,165,0.0,3.0,83,0.00,,,0.10,weatherlink.com 1.10,2013-07-02 01:17:00,
2013-07-01 21:32:00,75.1,70.0,29.91,West,265,0.0,4.0,84,0.00,,,0.10,weatherlink.com 1.10,2013-07-02 01:32:00,
2013-07-01 21:47:00,74.4,69.0,29.92,South,188,0.0,4.0,84,0.00,,,0.10,weatherlink.com 1.10,2013-07-02 01:47:00,
2013-07-01 22:02:00,74.0,69.0,29.93,SSE,148,1.0,4.0,85,0.00,,,0.10,weatherlink.com 1.10,2013-07-02 02:02:00,
2013-07-01 22:17:00,73.7,69.0,29.93,SSW,205,0.0,1.0,86,0.00,,,0.10,weatherlink.com 1.10,2013-07-02 02:17:00,
2013-07-01 22:32:00,73.3,69.0,29.93,SSW,205,0.0,0.0,87,0.00,,,0.10,weatherlink.com 1.10,2013-07-02 02:32:00,
2013-07-01 22:47:00,73.0,69.0,29.94,South,186,0.0,1.0,88,0.00,,,0.10,weatherlink.com 1.10,2013-07-02 02:47:00,
2013-07-01 23:02:00,73.0,69.0,29.94,South,177,0.0,3.0,88,0.00,,,0.10,weatherlink.com 1.10,2013-07-02 03:02:00,
2013-07-01 23:17:00,73.0,69.0,29.95,South,188,0.0,2.0,88,0.00,,,0.10,weatherlink.com 1.10,2013-07-02 03:17:00,
2013-07-01 23:32:00,73.0,69.0,29.95,SSE,161,0.0,3.0,88,0.00,,,0.10,weatherlink.com 1.10,2013-07-02 03:32:00,
2013-07-01 23:47:00,72.8,69.0,29.95,SE,128,0.0,2.0,88,0.00,,,0.10,weatherlink.com 1.10,2013-07-02 03:47:00,